sensor_id;sensor_type;location;lat;lon;timestamp;P1;durP1;ratioP1;P2;durP2;ratioP2
27533;SDS011;14973;51.460;7.008;2023-03-01T00:01:52;33.53;;;16.45;;
27533;SDS011;14973;51.460;7.008;2023-03-01T00:04:18;33.22;;;16.23;;
27533;SDS011;14973;51.460;7.008;2023-03-01T00:06:44;33.90;;;16.10;;
27533;SDS011;14973;51.460;7.008;2023-03-01T00:09:11;29.13;;;16.10;;
27533;SDS011;14973;51.460;7.008;2023-03-01T00:11:37;30.80;;;15.95;;
27533;SDS011;14973;51.460;7.008;2023-03-01T00:14:03;34.33;;;15.82;;
27533;SDS011;14973;51.460;7.008;2023-03-01T00:16:33;36.95;;;16.73;;
27533;SDS011;14973;51.460;7.008;2023-03-01T00:19:00;31.35;;;16.73;;
27533;SDS011;14973;51.460;7.008;2023-03-01T00:21:26;34.47;;;16.05;;
27533;SDS011;14973;51.460;7.008;2023-03-01T00:23:52;30.42;;;15.65;;
27533;SDS011;14973;51.460;7.008;2023-03-01T00:26:19;34.88;;;16.83;;
27533;SDS011;14973;51.460;7.008;2023-03-01T00:28:46;34.85;;;15.52;;
27533;SDS011;14973;51.460;7.008;2023-03-01T00:31:16;36.88;;;17.52;;
27533;SDS011;14973;51.460;7.008;2023-03-01T00:33:46;34.00;;;15.60;;
27533;SDS011;14973;51.460;7.008;2023-03-01T00:36:13;32.40;;;16.33;;
27533;SDS011;14973;51.460;7.008;2023-03-01T00:38:41;27.65;;;15.30;;
27533;SDS011;14973;51.460;7.008;2023-03-01T00:41:12;27.48;;;14.95;;
27533;SDS011;14973;51.460;7.008;2023-03-01T00:43:40;31.45;;;14.85;;
27533;SDS011;14973;51.460;7.008;2023-03-01T00:46:10;32.95;;;15.05;;
27533;SDS011;14973;51.460;7.008;2023-03-01T00:48:37;28.98;;;15.43;;
27533;SDS011;14973;51.460;7.008;2023-03-01T00:51:11;30.75;;;15.18;;
27533;SDS011;14973;51.460;7.008;2023-03-01T00:53:44;30.42;;;16.10;;
27533;SDS011;14973;51.460;7.008;2023-03-01T00:56:11;30.60;;;15.18;;
27533;SDS011;14973;51.460;7.008;2023-03-01T00:58:38;30.88;;;15.20;;
27533;SDS011;14973;51.460;7.008;2023-03-01T01:01:08;33.33;;;15.10;;
27533;SDS011;14973;51.460;7.008;2023-03-01T01:03:44;28.55;;;15.52;;
27533;SDS011;14973;51.460;7.008;2023-03-01T01:06:14;32.20;;;16.25;;
27533;SDS011;14973;51.460;7.008;2023-03-01T01:08:47;28.52;;;15.18;;
27533;SDS011;14973;51.460;7.008;2023-03-01T01:11:14;37.85;;;15.73;;
27533;SDS011;14973;51.460;7.008;2023-03-01T01:13:40;30.85;;;15.35;;
27533;SDS011;14973;51.460;7.008;2023-03-01T01:16:06;30.63;;;16.20;;
27533;SDS011;14973;51.460;7.008;2023-03-01T01:18:32;32.97;;;16.30;;
27533;SDS011;14973;51.460;7.008;2023-03-01T01:21:02;33.90;;;15.45;;
27533;SDS011;14973;51.460;7.008;2023-03-01T01:23:32;36.50;;;16.27;;
27533;SDS011;14973;51.460;7.008;2023-03-01T01:26:03;30.67;;;16.33;;
27533;SDS011;14973;51.460;7.008;2023-03-01T01:28:30;27.77;;;15.23;;
27533;SDS011;14973;51.460;7.008;2023-03-01T01:30:56;31.73;;;16.40;;
27533;SDS011;14973;51.460;7.008;2023-03-01T01:33:21;31.45;;;16.20;;
27533;SDS011;14973;51.460;7.008;2023-03-01T01:35:47;31.98;;;16.48;;
27533;SDS011;14973;51.460;7.008;2023-03-01T01:38:12;32.60;;;17.48;;
27533;SDS011;14973;51.460;7.008;2023-03-01T01:40:45;33.92;;;16.90;;
27533;SDS011;14973;51.460;7.008;2023-03-01T01:43:18;37.28;;;16.80;;
27533;SDS011;14973;51.460;7.008;2023-03-01T01:45:49;29.83;;;16.77;;
27533;SDS011;14973;51.460;7.008;2023-03-01T01:48:17;31.17;;;16.98;;
27533;SDS011;14973;51.460;7.008;2023-03-01T01:50:54;37.67;;;18.40;;
27533;SDS011;14973;51.460;7.008;2023-03-01T01:53:25;35.85;;;17.45;;
27533;SDS011;14973;51.460;7.008;2023-03-01T01:55:53;30.95;;;16.50;;
27533;SDS011;14973;51.460;7.008;2023-03-01T01:58:23;37.85;;;17.80;;
27533;SDS011;14973;51.460;7.008;2023-03-01T02:00:51;38.80;;;17.02;;
27533;SDS011;14973;51.460;7.008;2023-03-01T02:03:19;41.08;;;17.23;;
27533;SDS011;14973;51.460;7.008;2023-03-01T02:05:55;37.85;;;18.05;;
27533;SDS011;14973;51.460;7.008;2023-03-01T02:08:31;31.98;;;17.75;;
27533;SDS011;14973;51.460;7.008;2023-03-01T02:11:00;38.95;;;16.38;;
27533;SDS011;14973;51.460;7.008;2023-03-01T02:13:26;34.75;;;17.50;;
27533;SDS011;14973;51.460;7.008;2023-03-01T02:15:52;38.38;;;16.27;;
27533;SDS011;14973;51.460;7.008;2023-03-01T02:18:18;33.83;;;17.40;;
27533;SDS011;14973;51.460;7.008;2023-03-01T02:23:59;34.33;;;16.52;;
27533;SDS011;14973;51.460;7.008;2023-03-01T02:26:46;35.08;;;16.23;;
27533;SDS011;14973;51.460;7.008;2023-03-01T02:29:16;33.35;;;16.35;;
27533;SDS011;14973;51.460;7.008;2023-03-01T02:31:42;42.92;;;17.27;;
27533;SDS011;14973;51.460;7.008;2023-03-01T02:34:09;32.90;;;16.55;;
27533;SDS011;14973;51.460;7.008;2023-03-01T02:36:42;30.42;;;16.73;;
27533;SDS011;14973;51.460;7.008;2023-03-01T02:39:18;36.13;;;17.40;;
27533;SDS011;14973;51.460;7.008;2023-03-01T02:41:51;32.97;;;17.73;;
27533;SDS011;14973;51.460;7.008;2023-03-01T02:44:19;37.28;;;16.58;;
27533;SDS011;14973;51.460;7.008;2023-03-01T02:46:47;38.60;;;16.98;;
27533;SDS011;14973;51.460;7.008;2023-03-01T02:49:47;40.03;;;17.42;;
27533;SDS011;14973;51.460;7.008;2023-03-01T02:55:09;39.03;;;17.88;;
27533;SDS011;14973;51.460;7.008;2023-03-01T02:57:40;37.35;;;17.50;;
27533;SDS011;14973;51.460;7.008;2023-03-01T03:00:31;39.67;;;18.30;;
27533;SDS011;14973;51.460;7.008;2023-03-01T03:03:05;35.88;;;17.85;;
27533;SDS011;14973;51.460;7.008;2023-03-01T03:05:32;36.42;;;17.88;;
27533;SDS011;14973;51.460;7.008;2023-03-01T03:07:58;35.17;;;18.40;;
27533;SDS011;14973;51.460;7.008;2023-03-01T03:10:28;42.50;;;18.75;;
27533;SDS011;14973;51.460;7.008;2023-03-01T03:12:56;36.90;;;18.45;;
27533;SDS011;14973;51.460;7.008;2023-03-01T03:15:27;38.40;;;18.73;;
27533;SDS011;14973;51.460;7.008;2023-03-01T03:17:54;41.17;;;17.88;;
27533;SDS011;14973;51.460;7.008;2023-03-01T03:20:20;39.35;;;19.73;;
27533;SDS011;14973;51.460;7.008;2023-03-01T03:22:50;37.50;;;18.65;;
27533;SDS011;14973;51.460;7.008;2023-03-01T03:25:17;43.88;;;18.70;;
27533;SDS011;14973;51.460;7.008;2023-03-01T03:27:44;38.70;;;18.55;;
27533;SDS011;14973;51.460;7.008;2023-03-01T03:30:12;35.40;;;18.13;;
27533;SDS011;14973;51.460;7.008;2023-03-01T03:32:42;46.35;;;19.20;;
27533;SDS011;14973;51.460;7.008;2023-03-01T03:35:22;42.90;;;20.17;;
27533;SDS011;14973;51.460;7.008;2023-03-01T03:37:49;42.22;;;19.40;;
27533;SDS011;14973;51.460;7.008;2023-03-01T03:40:40;40.42;;;19.88;;
27533;SDS011;14973;51.460;7.008;2023-03-01T03:43:11;41.63;;;19.38;;
27533;SDS011;14973;51.460;7.008;2023-03-01T03:45:43;38.30;;;19.98;;
27533;SDS011;14973;51.460;7.008;2023-03-01T03:48:09;40.78;;;20.17;;
27533;SDS011;14973;51.460;7.008;2023-03-01T03:50:35;36.20;;;18.58;;
27533;SDS011;14973;51.460;7.008;2023-03-01T03:53:03;44.67;;;20.33;;
27533;SDS011;14973;51.460;7.008;2023-03-01T03:55:31;44.05;;;19.95;;
27533;SDS011;14973;51.460;7.008;2023-03-01T03:57:59;41.88;;;18.83;;
27533;SDS011;14973;51.460;7.008;2023-03-01T04:00:32;41.90;;;18.75;;
27533;SDS011;14973;51.460;7.008;2023-03-01T04:02:58;53.25;;;19.58;;
27533;SDS011;14973;51.460;7.008;2023-03-01T04:05:25;41.35;;;19.00;;
27533;SDS011;14973;51.460;7.008;2023-03-01T04:07:52;45.88;;;19.65;;
27533;SDS011;14973;51.460;7.008;2023-03-01T04:10:26;40.20;;;20.02;;
27533;SDS011;14973;51.460;7.008;2023-03-01T04:12:53;39.40;;;19.45;;
27533;SDS011;14973;51.460;7.008;2023-03-01T04:15:21;45.45;;;19.50;;
27533;SDS011;14973;51.460;7.008;2023-03-01T04:17:49;40.72;;;20.20;;
27533;SDS011;14973;51.460;7.008;2023-03-01T04:20:18;41.70;;;19.48;;
27533;SDS011;14973;51.460;7.008;2023-03-01T04:23:12;40.03;;;18.85;;
27533;SDS011;14973;51.460;7.008;2023-03-01T04:25:41;43.75;;;20.50;;
27533;SDS011;14973;51.460;7.008;2023-03-01T04:28:14;51.08;;;19.98;;
27533;SDS011;14973;51.460;7.008;2023-03-01T04:30:41;43.42;;;19.90;;
27533;SDS011;14973;51.460;7.008;2023-03-01T04:33:07;51.78;;;20.75;;
27533;SDS011;14973;51.460;7.008;2023-03-01T04:35:34;49.25;;;21.85;;
27533;SDS011;14973;51.460;7.008;2023-03-01T04:38:01;52.00;;;21.20;;
27533;SDS011;14973;51.460;7.008;2023-03-01T04:40:27;45.92;;;20.33;;
27533;SDS011;14973;51.460;7.008;2023-03-01T04:42:53;49.65;;;20.48;;
27533;SDS011;14973;51.460;7.008;2023-03-01T04:45:19;45.67;;;22.08;;
27533;SDS011;14973;51.460;7.008;2023-03-01T04:47:45;42.10;;;20.88;;
27533;SDS011;14973;51.460;7.008;2023-03-01T04:50:12;46.72;;;19.75;;
27533;SDS011;14973;51.460;7.008;2023-03-01T04:52:40;49.47;;;19.95;;
27533;SDS011;14973;51.460;7.008;2023-03-01T04:55:07;46.95;;;20.50;;
27533;SDS011;14973;51.460;7.008;2023-03-01T04:57:33;39.35;;;20.25;;
27533;SDS011;14973;51.460;7.008;2023-03-01T04:59:59;39.58;;;19.27;;
27533;SDS011;14973;51.460;7.008;2023-03-01T05:02:25;41.72;;;19.40;;
27533;SDS011;14973;51.460;7.008;2023-03-01T05:04:50;40.83;;;19.92;;
27533;SDS011;14973;51.460;7.008;2023-03-01T05:07:16;43.90;;;20.60;;
27533;SDS011;14973;51.460;7.008;2023-03-01T05:09:46;40.97;;;18.90;;
27533;SDS011;14973;51.460;7.008;2023-03-01T05:12:12;41.92;;;19.40;;
27533;SDS011;14973;51.460;7.008;2023-03-01T05:14:38;44.10;;;19.88;;
27533;SDS011;14973;51.460;7.008;2023-03-01T05:17:04;43.97;;;19.95;;
27533;SDS011;14973;51.460;7.008;2023-03-01T05:19:30;46.80;;;20.63;;
27533;SDS011;14973;51.460;7.008;2023-03-01T05:21:57;44.85;;;20.10;;
27533;SDS011;14973;51.460;7.008;2023-03-01T05:24:30;43.50;;;20.48;;
27533;SDS011;14973;51.460;7.008;2023-03-01T05:26:56;51.25;;;19.90;;
27533;SDS011;14973;51.460;7.008;2023-03-01T05:29:23;48.33;;;20.70;;
27533;SDS011;14973;51.460;7.008;2023-03-01T05:31:53;48.55;;;20.88;;
27533;SDS011;14973;51.460;7.008;2023-03-01T05:34:24;56.88;;;19.85;;
27533;SDS011;14973;51.460;7.008;2023-03-01T05:36:50;42.78;;;20.98;;
27533;SDS011;14973;51.460;7.008;2023-03-01T05:39:18;47.58;;;21.50;;
27533;SDS011;14973;51.460;7.008;2023-03-01T05:41:51;48.67;;;21.20;;
27533;SDS011;14973;51.460;7.008;2023-03-01T05:44:17;43.20;;;22.00;;
27533;SDS011;14973;51.460;7.008;2023-03-01T05:46:43;43.58;;;20.83;;
27533;SDS011;14973;51.460;7.008;2023-03-01T05:49:09;48.60;;;21.35;;
27533;SDS011;14973;51.460;7.008;2023-03-01T05:51:35;53.80;;;21.88;;
27533;SDS011;14973;51.460;7.008;2023-03-01T05:54:01;45.97;;;20.52;;
27533;SDS011;14973;51.460;7.008;2023-03-01T05:56:27;44.38;;;20.13;;
27533;SDS011;14973;51.460;7.008;2023-03-01T05:58:52;50.67;;;20.45;;
27533;SDS011;14973;51.460;7.008;2023-03-01T06:01:18;43.55;;;20.10;;
27533;SDS011;14973;51.460;7.008;2023-03-01T06:03:43;44.00;;;20.80;;
27533;SDS011;14973;51.460;7.008;2023-03-01T06:06:09;49.95;;;21.10;;
27533;SDS011;14973;51.460;7.008;2023-03-01T06:08:35;51.60;;;22.13;;
27533;SDS011;14973;51.460;7.008;2023-03-01T06:11:00;51.00;;;20.48;;
27533;SDS011;14973;51.460;7.008;2023-03-01T06:13:26;46.38;;;20.70;;
27533;SDS011;14973;51.460;7.008;2023-03-01T06:15:51;51.58;;;21.92;;
27533;SDS011;14973;51.460;7.008;2023-03-01T06:18:17;47.05;;;21.42;;
27533;SDS011;14973;51.460;7.008;2023-03-01T06:20:43;48.00;;;21.70;;
27533;SDS011;14973;51.460;7.008;2023-03-01T06:23:08;53.90;;;21.63;;
27533;SDS011;14973;51.460;7.008;2023-03-01T06:25:34;52.78;;;21.52;;
27533;SDS011;14973;51.460;7.008;2023-03-01T06:27:59;42.08;;;21.05;;
27533;SDS011;14973;51.460;7.008;2023-03-01T06:30:25;43.22;;;20.83;;
27533;SDS011;14973;51.460;7.008;2023-03-01T06:32:51;47.78;;;21.88;;
27533;SDS011;14973;51.460;7.008;2023-03-01T06:35:18;45.20;;;21.40;;
27533;SDS011;14973;51.460;7.008;2023-03-01T06:37:44;48.80;;;22.40;;
27533;SDS011;14973;51.460;7.008;2023-03-01T06:40:11;50.78;;;21.83;;
27533;SDS011;14973;51.460;7.008;2023-03-01T06:42:39;54.55;;;21.80;;
27533;SDS011;14973;51.460;7.008;2023-03-01T06:45:07;49.20;;;20.48;;
27533;SDS011;14973;51.460;7.008;2023-03-01T06:47:33;46.03;;;19.33;;
27533;SDS011;14973;51.460;7.008;2023-03-01T06:49:59;49.00;;;19.40;;
27533;SDS011;14973;51.460;7.008;2023-03-01T06:52:25;48.35;;;18.83;;
27533;SDS011;14973;51.460;7.008;2023-03-01T06:54:51;44.03;;;20.90;;
27533;SDS011;14973;51.460;7.008;2023-03-01T06:57:17;45.92;;;18.70;;
27533;SDS011;14973;51.460;7.008;2023-03-01T06:59:42;40.63;;;19.63;;
27533;SDS011;14973;51.460;7.008;2023-03-01T07:02:11;48.80;;;19.83;;
27533;SDS011;14973;51.460;7.008;2023-03-01T07:04:37;49.53;;;19.30;;
27533;SDS011;14973;51.460;7.008;2023-03-01T07:07:03;42.88;;;19.63;;
27533;SDS011;14973;51.460;7.008;2023-03-01T07:09:28;42.40;;;18.77;;
27533;SDS011;14973;51.460;7.008;2023-03-01T07:11:54;45.75;;;19.10;;
27533;SDS011;14973;51.460;7.008;2023-03-01T07:14:20;41.40;;;18.70;;
27533;SDS011;14973;51.460;7.008;2023-03-01T07:16:46;37.22;;;16.55;;
27533;SDS011;14973;51.460;7.008;2023-03-01T07:19:12;40.28;;;17.85;;
27533;SDS011;14973;51.460;7.008;2023-03-01T07:21:38;43.15;;;18.52;;
27533;SDS011;14973;51.460;7.008;2023-03-01T07:24:06;52.03;;;19.65;;
27533;SDS011;14973;51.460;7.008;2023-03-01T07:26:34;46.42;;;20.17;;
27533;SDS011;14973;51.460;7.008;2023-03-01T07:29:00;47.55;;;19.60;;
27533;SDS011;14973;51.460;7.008;2023-03-01T07:31:27;47.40;;;19.30;;
27533;SDS011;14973;51.460;7.008;2023-03-01T07:33:53;48.25;;;21.55;;
27533;SDS011;14973;51.460;7.008;2023-03-01T07:36:19;48.78;;;19.63;;
27533;SDS011;14973;51.460;7.008;2023-03-01T07:38:45;38.20;;;18.83;;
27533;SDS011;14973;51.460;7.008;2023-03-01T07:41:10;44.47;;;20.13;;
27533;SDS011;14973;51.460;7.008;2023-03-01T07:43:36;44.97;;;19.25;;
27533;SDS011;14973;51.460;7.008;2023-03-01T07:46:02;42.65;;;19.58;;
27533;SDS011;14973;51.460;7.008;2023-03-01T07:48:29;45.28;;;20.20;;
27533;SDS011;14973;51.460;7.008;2023-03-01T07:50:59;46.83;;;19.88;;
27533;SDS011;14973;51.460;7.008;2023-03-01T07:53:26;44.90;;;20.02;;
27533;SDS011;14973;51.460;7.008;2023-03-01T07:56:02;41.78;;;18.65;;
27533;SDS011;14973;51.460;7.008;2023-03-01T07:58:36;50.78;;;19.50;;
27533;SDS011;14973;51.460;7.008;2023-03-01T08:01:03;40.47;;;17.88;;
27533;SDS011;14973;51.460;7.008;2023-03-01T08:03:34;44.25;;;17.80;;
27533;SDS011;14973;51.460;7.008;2023-03-01T08:06:00;61.45;;;18.88;;
27533;SDS011;14973;51.460;7.008;2023-03-01T08:08:27;33.95;;;16.92;;
27533;SDS011;14973;51.460;7.008;2023-03-01T08:10:56;43.63;;;17.63;;
27533;SDS011;14973;51.460;7.008;2023-03-01T08:13:22;45.38;;;18.10;;
27533;SDS011;14973;51.460;7.008;2023-03-01T08:15:49;36.13;;;16.77;;
27533;SDS011;14973;51.460;7.008;2023-03-01T08:18:16;42.72;;;18.67;;
27533;SDS011;14973;51.460;7.008;2023-03-01T08:20:43;39.33;;;17.77;;
27533;SDS011;14973;51.460;7.008;2023-03-01T08:23:09;37.47;;;16.98;;
27533;SDS011;14973;51.460;7.008;2023-03-01T08:25:35;41.58;;;16.83;;
27533;SDS011;14973;51.460;7.008;2023-03-01T08:28:00;38.08;;;17.27;;
27533;SDS011;14973;51.460;7.008;2023-03-01T08:30:26;33.58;;;14.80;;
27533;SDS011;14973;51.460;7.008;2023-03-01T08:32:52;26.55;;;14.70;;
27533;SDS011;14973;51.460;7.008;2023-03-01T08:35:18;28.90;;;13.85;;
27533;SDS011;14973;51.460;7.008;2023-03-01T08:37:44;39.65;;;13.80;;
27533;SDS011;14973;51.460;7.008;2023-03-01T08:40:11;30.48;;;13.05;;
27533;SDS011;14973;51.460;7.008;2023-03-01T08:42:38;20.65;;;11.98;;
27533;SDS011;14973;51.460;7.008;2023-03-01T08:45:06;32.03;;;13.38;;
27533;SDS011;14973;51.460;7.008;2023-03-01T08:47:32;23.67;;;11.70;;
27533;SDS011;14973;51.460;7.008;2023-03-01T08:49:58;22.85;;;11.50;;
27533;SDS011;14973;51.460;7.008;2023-03-01T08:52:25;22.67;;;11.52;;
27533;SDS011;14973;51.460;7.008;2023-03-01T08:54:50;24.27;;;12.45;;
27533;SDS011;14973;51.460;7.008;2023-03-01T08:57:17;20.23;;;11.68;;
27533;SDS011;14973;51.460;7.008;2023-03-01T08:59:42;24.42;;;11.00;;
27533;SDS011;14973;51.460;7.008;2023-03-01T09:02:12;27.48;;;10.77;;
27533;SDS011;14973;51.460;7.008;2023-03-01T09:04:42;18.80;;;11.35;;
27533;SDS011;14973;51.460;7.008;2023-03-01T09:07:09;26.67;;;11.35;;
27533;SDS011;14973;51.460;7.008;2023-03-01T09:09:35;22.23;;;12.07;;
27533;SDS011;14973;51.460;7.008;2023-03-01T09:12:03;20.77;;;10.95;;
27533;SDS011;14973;51.460;7.008;2023-03-01T09:14:29;20.05;;;12.15;;
27533;SDS011;14973;51.460;7.008;2023-03-01T09:16:55;22.38;;;11.45;;
27533;SDS011;14973;51.460;7.008;2023-03-01T09:19:21;18.77;;;10.57;;
27533;SDS011;14973;51.460;7.008;2023-03-01T09:21:46;20.92;;;10.05;;
27533;SDS011;14973;51.460;7.008;2023-03-01T09:24:19;17.20;;;9.40;;
27533;SDS011;14973;51.460;7.008;2023-03-01T09:26:46;16.17;;;10.00;;
27533;SDS011;14973;51.460;7.008;2023-03-01T09:29:12;21.38;;;10.88;;
27533;SDS011;14973;51.460;7.008;2023-03-01T09:31:39;18.10;;;10.02;;
27533;SDS011;14973;51.460;7.008;2023-03-01T09:34:05;15.80;;;10.05;;
27533;SDS011;14973;51.460;7.008;2023-03-01T09:36:32;17.35;;;9.65;;
27533;SDS011;14973;51.460;7.008;2023-03-01T09:38:59;22.15;;;10.10;;
27533;SDS011;14973;51.460;7.008;2023-03-01T09:41:44;20.00;;;10.43;;
27533;SDS011;14973;51.460;7.008;2023-03-01T09:44:21;19.38;;;9.52;;
27533;SDS011;14973;51.460;7.008;2023-03-01T09:47:05;21.17;;;10.95;;
27533;SDS011;14973;51.460;7.008;2023-03-01T09:49:41;18.52;;;10.45;;
27533;SDS011;14973;51.460;7.008;2023-03-01T09:55:07;19.75;;;9.05;;
27533;SDS011;14973;51.460;7.008;2023-03-01T09:57:50;23.38;;;10.23;;
27533;SDS011;14973;51.460;7.008;2023-03-01T10:00:36;23.23;;;10.90;;
27533;SDS011;14973;51.460;7.008;2023-03-01T10:03:10;24.60;;;10.60;;
27533;SDS011;14973;51.460;7.008;2023-03-01T10:08:40;20.02;;;10.82;;
27533;SDS011;14973;51.460;7.008;2023-03-01T10:11:28;25.50;;;10.07;;
27533;SDS011;14973;51.460;7.008;2023-03-01T10:16:43;23.10;;;10.50;;
27533;SDS011;14973;51.460;7.008;2023-03-01T10:24:53;24.08;;;10.60;;
27533;SDS011;14973;51.460;7.008;2023-03-01T10:27:36;24.45;;;11.05;;
27533;SDS011;14973;51.460;7.008;2023-03-01T10:30:19;28.13;;;10.68;;
27533;SDS011;14973;51.460;7.008;2023-03-01T10:32:59;17.30;;;9.82;;
27533;SDS011;14973;51.460;7.008;2023-03-01T10:35:27;21.55;;;10.77;;
27533;SDS011;14973;51.460;7.008;2023-03-01T10:40:22;17.73;;;9.20;;
27533;SDS011;14973;51.460;7.008;2023-03-01T10:42:49;20.33;;;10.15;;
27533;SDS011;14973;51.460;7.008;2023-03-01T10:48:02;22.58;;;9.52;;
27533;SDS011;14973;51.460;7.008;2023-03-01T10:50:44;18.92;;;9.65;;
27533;SDS011;14973;51.460;7.008;2023-03-01T10:55:55;19.75;;;9.10;;
27533;SDS011;14973;51.460;7.008;2023-03-01T10:58:26;22.95;;;11.02;;
27533;SDS011;14973;51.460;7.008;2023-03-01T11:00:54;24.35;;;9.73;;
27533;SDS011;14973;51.460;7.008;2023-03-01T11:03:31;18.00;;;9.07;;
27533;SDS011;14973;51.460;7.008;2023-03-01T11:06:00;20.73;;;9.23;;
27533;SDS011;14973;51.460;7.008;2023-03-01T11:08:30;20.73;;;9.48;;
27533;SDS011;14973;51.460;7.008;2023-03-01T11:11:07;18.90;;;9.77;;
27533;SDS011;14973;51.460;7.008;2023-03-01T11:13:38;19.13;;;9.82;;
27533;SDS011;14973;51.460;7.008;2023-03-01T11:16:27;20.67;;;9.70;;
27533;SDS011;14973;51.460;7.008;2023-03-01T11:24:40;23.40;;;9.23;;
27533;SDS011;14973;51.460;7.008;2023-03-01T11:27:12;19.20;;;9.50;;
27533;SDS011;14973;51.460;7.008;2023-03-01T11:29:53;16.35;;;8.32;;
27533;SDS011;14973;51.460;7.008;2023-03-01T11:32:38;20.58;;;9.32;;
27533;SDS011;14973;51.460;7.008;2023-03-01T11:35:20;25.77;;;9.75;;
27533;SDS011;14973;51.460;7.008;2023-03-01T11:40:45;16.70;;;9.43;;
27533;SDS011;14973;51.460;7.008;2023-03-01T11:46:29;19.70;;;8.85;;
27533;SDS011;14973;51.460;7.008;2023-03-01T11:49:30;15.88;;;9.00;;
27533;SDS011;14973;51.460;7.008;2023-03-01T11:52:24;20.25;;;9.30;;
27533;SDS011;14973;51.460;7.008;2023-03-01T11:57:48;20.00;;;9.70;;
27533;SDS011;14973;51.460;7.008;2023-03-01T12:06:33;18.17;;;8.55;;
27533;SDS011;14973;51.460;7.008;2023-03-01T12:25:48;16.83;;;8.85;;
27533;SDS011;14973;51.460;7.008;2023-03-01T12:40:28;17.60;;;8.90;;
27533;SDS011;14973;51.460;7.008;2023-03-01T12:45:47;19.13;;;9.13;;
27533;SDS011;14973;51.460;7.008;2023-03-01T12:48:40;21.95;;;9.48;;
27533;SDS011;14973;51.460;7.008;2023-03-01T12:51:14;18.33;;;10.23;;
27533;SDS011;14973;51.460;7.008;2023-03-01T12:53:43;16.88;;;9.63;;
27533;SDS011;14973;51.460;7.008;2023-03-01T12:56:22;18.45;;;10.00;;
27533;SDS011;14973;51.460;7.008;2023-03-01T12:58:53;22.77;;;9.43;;
27533;SDS011;14973;51.460;7.008;2023-03-01T13:07:02;18.48;;;8.68;;
27533;SDS011;14973;51.460;7.008;2023-03-01T13:17:49;19.25;;;9.07;;
27533;SDS011;14973;51.460;7.008;2023-03-01T13:20:21;21.50;;;10.45;;
27533;SDS011;14973;51.460;7.008;2023-03-01T13:23:06;15.65;;;9.05;;
27533;SDS011;14973;51.460;7.008;2023-03-01T13:25:32;20.00;;;9.82;;
27533;SDS011;14973;51.460;7.008;2023-03-01T13:31:01;29.15;;;10.02;;
27533;SDS011;14973;51.460;7.008;2023-03-01T13:41:06;20.35;;;9.27;;
27533;SDS011;14973;51.460;7.008;2023-03-01T13:43:34;18.67;;;9.48;;
27533;SDS011;14973;51.460;7.008;2023-03-01T13:46:12;18.40;;;9.73;;
27533;SDS011;14973;51.460;7.008;2023-03-01T13:48:47;23.13;;;8.95;;
27533;SDS011;14973;51.460;7.008;2023-03-01T13:51:20;22.98;;;10.43;;
27533;SDS011;14973;51.460;7.008;2023-03-01T13:53:49;18.90;;;9.68;;
27533;SDS011;14973;51.460;7.008;2023-03-01T13:56:26;17.60;;;9.18;;
27533;SDS011;14973;51.460;7.008;2023-03-01T13:58:58;19.77;;;9.55;;
27533;SDS011;14973;51.460;7.008;2023-03-01T14:01:42;26.50;;;9.43;;
27533;SDS011;14973;51.460;7.008;2023-03-01T14:07:35;22.60;;;9.80;;
27533;SDS011;14973;51.460;7.008;2023-03-01T14:09:58;21.05;;;10.02;;
27533;SDS011;14973;51.460;7.008;2023-03-01T14:17:52;19.98;;;10.10;;
27533;SDS011;14973;51.460;7.008;2023-03-01T14:20:42;20.95;;;9.93;;
27533;SDS011;14973;51.460;7.008;2023-03-01T14:23:24;26.10;;;11.13;;
27533;SDS011;14973;51.460;7.008;2023-03-01T14:25:55;23.00;;;10.77;;
27533;SDS011;14973;51.460;7.008;2023-03-01T14:30:54;23.65;;;10.27;;
27533;SDS011;14973;51.460;7.008;2023-03-01T14:33:22;23.23;;;10.60;;
27533;SDS011;14973;51.460;7.008;2023-03-01T14:35:53;23.50;;;10.00;;
27533;SDS011;14973;51.460;7.008;2023-03-01T14:38:44;21.35;;;10.50;;
27533;SDS011;14973;51.460;7.008;2023-03-01T14:41:11;18.63;;;10.52;;
27533;SDS011;14973;51.460;7.008;2023-03-01T14:43:56;22.20;;;11.45;;
27533;SDS011;14973;51.460;7.008;2023-03-01T14:46:26;20.15;;;10.05;;
27533;SDS011;14973;51.460;7.008;2023-03-01T14:49:02;26.88;;;11.07;;
27533;SDS011;14973;51.460;7.008;2023-03-01T14:51:34;19.45;;;10.10;;
27533;SDS011;14973;51.460;7.008;2023-03-01T14:54:10;19.58;;;10.40;;
27533;SDS011;14973;51.460;7.008;2023-03-01T14:57:05;19.27;;;9.07;;
27533;SDS011;14973;51.460;7.008;2023-03-01T14:59:33;19.60;;;9.95;;
27533;SDS011;14973;51.460;7.008;2023-03-01T15:01:59;21.73;;;9.18;;
27533;SDS011;14973;51.460;7.008;2023-03-01T15:04:26;21.35;;;10.93;;
27533;SDS011;14973;51.460;7.008;2023-03-01T15:06:53;20.63;;;9.98;;
27533;SDS011;14973;51.460;7.008;2023-03-01T15:09:20;20.80;;;10.05;;
27533;SDS011;14973;51.460;7.008;2023-03-01T15:11:47;21.33;;;9.50;;
27533;SDS011;14973;51.460;7.008;2023-03-01T15:17:16;27.58;;;10.45;;
27533;SDS011;14973;51.460;7.008;2023-03-01T15:19:49;25.63;;;10.38;;
27533;SDS011;14973;51.460;7.008;2023-03-01T15:22:15;20.95;;;10.25;;
27533;SDS011;14973;51.460;7.008;2023-03-01T15:24:41;24.10;;;10.73;;
27533;SDS011;14973;51.460;7.008;2023-03-01T15:27:17;22.73;;;11.75;;
27533;SDS011;14973;51.460;7.008;2023-03-01T15:29:58;27.95;;;11.40;;
27533;SDS011;14973;51.460;7.008;2023-03-01T15:32:33;20.48;;;10.90;;
27533;SDS011;14973;51.460;7.008;2023-03-01T15:38:04;20.10;;;10.73;;
27533;SDS011;14973;51.460;7.008;2023-03-01T15:40:51;27.17;;;11.43;;
27533;SDS011;14973;51.460;7.008;2023-03-01T15:46:25;20.63;;;9.75;;
27533;SDS011;14973;51.460;7.008;2023-03-01T15:49:03;27.42;;;11.82;;
27533;SDS011;14973;51.460;7.008;2023-03-01T15:51:42;22.40;;;10.80;;
27533;SDS011;14973;51.460;7.008;2023-03-01T15:54:14;18.45;;;9.45;;
27533;SDS011;14973;51.460;7.008;2023-03-01T15:56:44;20.83;;;9.30;;
27533;SDS011;14973;51.460;7.008;2023-03-01T15:59:10;21.33;;;10.43;;
27533;SDS011;14973;51.460;7.008;2023-03-01T16:01:38;34.30;;;10.70;;
27533;SDS011;14973;51.460;7.008;2023-03-01T16:04:14;21.83;;;10.25;;
27533;SDS011;14973;51.460;7.008;2023-03-01T16:06:53;21.15;;;10.32;;
27533;SDS011;14973;51.460;7.008;2023-03-01T16:09:23;25.55;;;10.55;;
27533;SDS011;14973;51.460;7.008;2023-03-01T16:11:50;21.80;;;9.98;;
27533;SDS011;14973;51.460;7.008;2023-03-01T16:14:17;22.08;;;10.63;;
27533;SDS011;14973;51.460;7.008;2023-03-01T16:16:43;25.77;;;10.48;;
27533;SDS011;14973;51.460;7.008;2023-03-01T16:19:09;21.58;;;8.85;;
27533;SDS011;14973;51.460;7.008;2023-03-01T16:21:35;19.20;;;9.25;;
27533;SDS011;14973;51.460;7.008;2023-03-01T16:24:01;18.05;;;9.38;;
27533;SDS011;14973;51.460;7.008;2023-03-01T16:26:27;19.40;;;9.27;;
27533;SDS011;14973;51.460;7.008;2023-03-01T16:28:56;21.38;;;9.77;;
27533;SDS011;14973;51.460;7.008;2023-03-01T16:31:22;27.40;;;10.32;;
27533;SDS011;14973;51.460;7.008;2023-03-01T16:33:48;25.58;;;10.70;;
27533;SDS011;14973;51.460;7.008;2023-03-01T16:36:16;21.70;;;9.32;;
27533;SDS011;14973;51.460;7.008;2023-03-01T16:38:44;17.90;;;9.25;;
27533;SDS011;14973;51.460;7.008;2023-03-01T16:41:13;27.67;;;8.95;;
27533;SDS011;14973;51.460;7.008;2023-03-01T16:43:40;17.52;;;8.10;;
27533;SDS011;14973;51.460;7.008;2023-03-01T16:46:10;22.67;;;9.48;;